Oasis, Utah
Current Conditions -  °F | °C
As of 8:15 AM on Wednesday 26 Nov 2014 (Local Time) from KDTA Reporting Station
Clear Clear  
Wind Chill: 26°   Ceiling: Unl
Heat Index: 26°   Visibility: 10mi
Dew Point: 23°   Wind: 3mph
Humidity: 89%   Direction: 130°SE
Pressure: 30.43"   Gusts: NA
Location:  39.29°N, 112.63°W
Report Text: KDTA 261515Z AUTO 13003KT 10SM CLR M03/M05 A3043 RMK AO1 T10351050
Loading
Personal Weather Stations






























Interactive Weather Map New forecast layout! Learn more

10-Day Weather Forecast

Advertisements
Track Severe Weather on mobile